Terminal Aerodrome Forecast
Issued by NWS

Home | Current Version | Previous Version | Text Only | Print | Product List | Glossary On
Versions: 1 2 3 4 5 6 7 8 9 10 11 12 13 14 15 16 17 18 19 20 21 22 23 24 25 26
000
FTUS46 KSGX 020524
TAFSAN
TAF
KSAN 020524Z 0206/0312 VRB04KT P6SM OVC015
     FM021900 28010KT P6SM SCT019 SCT250
     FM030200 VRB05KT P6SM SCT017 SCT250
     FM030400 VRB04KT P6SM OVC014=

USA.gov is the U.S. government's official web portal to all federal, state and local government web resources and services.